sensor_id;sensor_type;location;lat;lon;timestamp;temperature;humidity
7155;DHT22;3619;53.784;10.440;2023-02-13T00:00:44;6.60;99.90
7155;DHT22;3619;53.784;10.440;2023-02-13T00:03:11;6.60;99.90
7155;DHT22;3619;53.784;10.440;2023-02-13T00:05:38;6.60;99.90
7155;DHT22;3619;53.784;10.440;2023-02-13T00:08:06;6.60;99.90
7155;DHT22;3619;53.784;10.440;2023-02-13T00:10:33;6.50;99.90
7155;DHT22;3619;53.784;10.440;2023-02-13T00:13:00;6.60;99.90
7155;DHT22;3619;53.784;10.440;2023-02-13T00:15:28;6.50;99.90
7155;DHT22;3619;53.784;10.440;2023-02-13T00:17:55;6.60;99.90
7155;DHT22;3619;53.784;10.440;2023-02-13T00:20:22;6.60;99.90
7155;DHT22;3619;53.784;10.440;2023-02-13T00:22:49;6.50;99.90
7155;DHT22;3619;53.784;10.440;2023-02-13T00:25:18;6.50;99.90
7155;DHT22;3619;53.784;10.440;2023-02-13T00:27:44;6.50;99.90
7155;DHT22;3619;53.784;10.440;2023-02-13T00:30:12;6.50;99.90
7155;DHT22;3619;53.784;10.440;2023-02-13T00:32:39;6.50;99.90
7155;DHT22;3619;53.784;10.440;2023-02-13T00:35:06;6.50;99.90
7155;DHT22;3619;53.784;10.440;2023-02-13T00:37:33;6.50;99.90
7155;DHT22;3619;53.784;10.440;2023-02-13T00:40:00;6.50;99.90
7155;DHT22;3619;53.784;10.440;2023-02-13T00:42:28;6.50;99.90
7155;DHT22;3619;53.784;10.440;2023-02-13T00:44:55;6.50;99.90
7155;DHT22;3619;53.784;10.440;2023-02-13T00:47:22;6.50;99.90
7155;DHT22;3619;53.784;10.440;2023-02-13T00:49:49;6.50;99.90
7155;DHT22;3619;53.784;10.440;2023-02-13T00:52:16;6.50;99.90
7155;DHT22;3619;53.784;10.440;2023-02-13T00:54:43;6.50;99.90
7155;DHT22;3619;53.784;10.440;2023-02-13T00:57:11;6.50;99.90
7155;DHT22;3619;53.784;10.440;2023-02-13T00:59:39;6.50;99.90
7155;DHT22;3619;53.784;10.440;2023-02-13T01:02:06;6.50;99.90
7155;DHT22;3619;53.784;10.440;2023-02-13T01:04:32;6.50;99.90
7155;DHT22;3619;53.784;10.440;2023-02-13T01:06:59;6.40;99.90
7155;DHT22;3619;53.784;10.440;2023-02-13T01:09:26;6.50;99.90
7155;DHT22;3619;53.784;10.440;2023-02-13T01:11:53;6.50;99.90
7155;DHT22;3619;53.784;10.440;2023-02-13T01:14:20;6.50;99.90
7155;DHT22;3619;53.784;10.440;2023-02-13T01:16:48;6.50;99.90
7155;DHT22;3619;53.784;10.440;2023-02-13T01:19:15;6.50;99.90
7155;DHT22;3619;53.784;10.440;2023-02-13T01:21:42;6.50;99.90
7155;DHT22;3619;53.784;10.440;2023-02-13T01:24:09;6.50;99.90
7155;DHT22;3619;53.784;10.440;2023-02-13T01:26:36;6.50;99.90
7155;DHT22;3619;53.784;10.440;2023-02-13T01:29:03;6.50;99.90
7155;DHT22;3619;53.784;10.440;2023-02-13T01:31:33;6.50;99.90
7155;DHT22;3619;53.784;10.440;2023-02-13T01:34:01;6.50;99.90
7155;DHT22;3619;53.784;10.440;2023-02-13T01:36:28;6.50;99.90
7155;DHT22;3619;53.784;10.440;2023-02-13T01:38:56;6.50;99.90
7155;DHT22;3619;53.784;10.440;2023-02-13T01:41:25;6.40;99.90
7155;DHT22;3619;53.784;10.440;2023-02-13T01:43:55;6.40;99.90
7155;DHT22;3619;53.784;10.440;2023-02-13T01:46:26;6.40;99.90
7155;DHT22;3619;53.784;10.440;2023-02-13T01:48:58;6.40;99.90
7155;DHT22;3619;53.784;10.440;2023-02-13T01:51:31;6.40;99.90
7155;DHT22;3619;53.784;10.440;2023-02-13T01:54:02;6.40;99.90
7155;DHT22;3619;53.784;10.440;2023-02-13T01:56:32;6.40;99.90
7155;DHT22;3619;53.784;10.440;2023-02-13T01:59:06;6.40;99.90
7155;DHT22;3619;53.784;10.440;2023-02-13T02:01:33;6.40;99.90
7155;DHT22;3619;53.784;10.440;2023-02-13T02:04:06;6.40;99.90
7155;DHT22;3619;53.784;10.440;2023-02-13T02:06:37;6.40;99.90
7155;DHT22;3619;53.784;10.440;2023-02-13T02:09:07;6.40;99.90
7155;DHT22;3619;53.784;10.440;2023-02-13T02:11:41;6.40;99.90
7155;DHT22;3619;53.784;10.440;2023-02-13T02:14:09;6.40;99.90
7155;DHT22;3619;53.784;10.440;2023-02-13T02:16:36;6.30;99.90
7155;DHT22;3619;53.784;10.440;2023-02-13T02:19:06;6.30;99.90
7155;DHT22;3619;53.784;10.440;2023-02-13T02:28:29;6.30;99.90
7155;DHT22;3619;53.784;10.440;2023-02-13T02:34:09;6.40;99.90
7155;DHT22;3619;53.784;10.440;2023-02-13T02:36:51;6.30;99.90
7155;DHT22;3619;53.784;10.440;2023-02-13T02:39:28;6.30;99.90
7155;DHT22;3619;53.784;10.440;2023-02-13T02:42:04;6.30;99.90
7155;DHT22;3619;53.784;10.440;2023-02-13T02:44:40;6.30;99.90
7155;DHT22;3619;53.784;10.440;2023-02-13T02:47:13;6.30;99.90
7155;DHT22;3619;53.784;10.440;2023-02-13T02:50:13;6.30;99.90
7155;DHT22;3619;53.784;10.440;2023-02-13T02:52:45;6.30;99.90
7155;DHT22;3619;53.784;10.440;2023-02-13T02:55:23;6.30;99.90
7155;DHT22;3619;53.784;10.440;2023-02-13T02:58:01;6.20;99.90
7155;DHT22;3619;53.784;10.440;2023-02-13T03:00:49;6.20;99.90
7155;DHT22;3619;53.784;10.440;2023-02-13T03:03:35;6.20;99.90
7155;DHT22;3619;53.784;10.440;2023-02-13T03:06:24;6.30;99.90
7155;DHT22;3619;53.784;10.440;2023-02-13T03:08:54;6.20;99.90
7155;DHT22;3619;53.784;10.440;2023-02-13T03:11:40;6.20;99.90
7155;DHT22;3619;53.784;10.440;2023-02-13T03:14:26;6.20;99.90
7155;DHT22;3619;53.784;10.440;2023-02-13T03:16:55;6.20;99.90
7155;DHT22;3619;53.784;10.440;2023-02-13T03:19:54;6.20;99.90
7155;DHT22;3619;53.784;10.440;2023-02-13T03:22:48;6.20;99.90
7155;DHT22;3619;53.784;10.440;2023-02-13T03:25:22;6.20;99.90
7155;DHT22;3619;53.784;10.440;2023-02-13T03:28:02;6.20;99.90
7155;DHT22;3619;53.784;10.440;2023-02-13T03:31:01;6.20;99.90
7155;DHT22;3619;53.784;10.440;2023-02-13T03:33:44;6.20;99.90
7155;DHT22;3619;53.784;10.440;2023-02-13T03:36:21;6.20;99.90
7155;DHT22;3619;53.784;10.440;2023-02-13T03:39:14;6.20;99.90
7155;DHT22;3619;53.784;10.440;2023-02-13T03:41:49;6.20;99.90
7155;DHT22;3619;53.784;10.440;2023-02-13T03:44:24;6.20;99.90
7155;DHT22;3619;53.784;10.440;2023-02-13T03:46:52;6.20;99.90
7155;DHT22;3619;53.784;10.440;2023-02-13T03:49:22;6.20;99.90
7155;DHT22;3619;53.784;10.440;2023-02-13T03:52:11;6.20;99.90
7155;DHT22;3619;53.784;10.440;2023-02-13T03:54:43;6.20;99.90
7155;DHT22;3619;53.784;10.440;2023-02-13T03:57:31;6.20;99.90
7155;DHT22;3619;53.784;10.440;2023-02-13T04:00:17;6.10;99.90
7155;DHT22;3619;53.784;10.440;2023-02-13T04:02:56;6.20;99.90
7155;DHT22;3619;53.784;10.440;2023-02-13T04:05:28;6.20;99.90
7155;DHT22;3619;53.784;10.440;2023-02-13T04:07:58;6.20;99.90
7155;DHT22;3619;53.784;10.440;2023-02-13T04:10:30;6.20;99.90
7155;DHT22;3619;53.784;10.440;2023-02-13T04:13:04;6.10;99.90
7155;DHT22;3619;53.784;10.440;2023-02-13T04:15:35;6.10;99.90
7155;DHT22;3619;53.784;10.440;2023-02-13T04:18:06;6.10;99.90
7155;DHT22;3619;53.784;10.440;2023-02-13T04:20:34;6.10;99.90
7155;DHT22;3619;53.784;10.440;2023-02-13T04:23:04;6.10;99.90
7155;DHT22;3619;53.784;10.440;2023-02-13T04:25:35;6.10;99.90
7155;DHT22;3619;53.784;10.440;2023-02-13T04:28:03;6.10;99.90
7155;DHT22;3619;53.784;10.440;2023-02-13T04:30:30;6.10;99.90
7155;DHT22;3619;53.784;10.440;2023-02-13T04:32:56;6.10;99.90
7155;DHT22;3619;53.784;10.440;2023-02-13T04:35:23;6.10;99.90
7155;DHT22;3619;53.784;10.440;2023-02-13T04:37:50;6.10;99.90
7155;DHT22;3619;53.784;10.440;2023-02-13T04:40:17;6.10;99.90
7155;DHT22;3619;53.784;10.440;2023-02-13T04:42:47;6.00;99.90
7155;DHT22;3619;53.784;10.440;2023-02-13T04:45:14;6.00;99.90
7155;DHT22;3619;53.784;10.440;2023-02-13T04:47:41;6.00;99.90
7155;DHT22;3619;53.784;10.440;2023-02-13T04:50:09;6.00;99.90
7155;DHT22;3619;53.784;10.440;2023-02-13T04:52:35;6.00;99.90
7155;DHT22;3619;53.784;10.440;2023-02-13T04:55:02;6.00;99.90
7155;DHT22;3619;53.784;10.440;2023-02-13T04:57:30;6.00;99.90
7155;DHT22;3619;53.784;10.440;2023-02-13T04:59:58;6.00;99.90
7155;DHT22;3619;53.784;10.440;2023-02-13T05:02:25;6.00;99.90
7155;DHT22;3619;53.784;10.440;2023-02-13T05:04:52;6.00;99.90
7155;DHT22;3619;53.784;10.440;2023-02-13T05:07:19;6.00;99.90
7155;DHT22;3619;53.784;10.440;2023-02-13T05:09:46;6.00;99.90
7155;DHT22;3619;53.784;10.440;2023-02-13T05:12:12;5.90;99.90
7155;DHT22;3619;53.784;10.440;2023-02-13T05:14:39;5.90;99.90
7155;DHT22;3619;53.784;10.440;2023-02-13T05:17:07;5.90;99.90
7155;DHT22;3619;53.784;10.440;2023-02-13T05:19:34;5.90;99.90
7155;DHT22;3619;53.784;10.440;2023-02-13T05:22:01;5.90;99.90
7155;DHT22;3619;53.784;10.440;2023-02-13T05:24:45;5.90;99.90
7155;DHT22;3619;53.784;10.440;2023-02-13T05:27:27;5.90;99.90
7155;DHT22;3619;53.784;10.440;2023-02-13T05:30:03;5.90;99.90
7155;DHT22;3619;53.784;10.440;2023-02-13T05:32:31;5.90;99.90
7155;DHT22;3619;53.784;10.440;2023-02-13T05:34:57;5.90;99.90
7155;DHT22;3619;53.784;10.440;2023-02-13T05:37:26;5.90;99.90
7155;DHT22;3619;53.784;10.440;2023-02-13T05:39:55;5.90;99.90
7155;DHT22;3619;53.784;10.440;2023-02-13T05:42:23;5.90;99.90
7155;DHT22;3619;53.784;10.440;2023-02-13T05:44:59;5.90;99.90
7155;DHT22;3619;53.784;10.440;2023-02-13T05:47:26;5.90;99.90
7155;DHT22;3619;53.784;10.440;2023-02-13T05:50:05;5.90;99.90
7155;DHT22;3619;53.784;10.440;2023-02-13T05:52:35;5.90;99.90
7155;DHT22;3619;53.784;10.440;2023-02-13T05:55:07;5.90;99.90
7155;DHT22;3619;53.784;10.440;2023-02-13T05:57:34;5.90;99.90
7155;DHT22;3619;53.784;10.440;2023-02-13T06:00:05;5.80;99.90
7155;DHT22;3619;53.784;10.440;2023-02-13T06:02:40;5.80;99.90
7155;DHT22;3619;53.784;10.440;2023-02-13T06:05:10;5.80;99.90
7155;DHT22;3619;53.784;10.440;2023-02-13T06:07:39;5.80;99.90
7155;DHT22;3619;53.784;10.440;2023-02-13T06:10:11;5.90;99.90
7155;DHT22;3619;53.784;10.440;2023-02-13T06:12:39;5.80;99.90
7155;DHT22;3619;53.784;10.440;2023-02-13T06:15:09;5.80;99.90
7155;DHT22;3619;53.784;10.440;2023-02-13T06:17:37;5.80;99.90
7155;DHT22;3619;53.784;10.440;2023-02-13T06:20:12;5.80;99.90
7155;DHT22;3619;53.784;10.440;2023-02-13T06:22:39;5.80;99.90
7155;DHT22;3619;53.784;10.440;2023-02-13T06:25:06;5.80;99.90
7155;DHT22;3619;53.784;10.440;2023-02-13T06:27:40;5.80;99.90
7155;DHT22;3619;53.784;10.440;2023-02-13T06:30:10;5.80;99.90
7155;DHT22;3619;53.784;10.440;2023-02-13T06:32:37;5.70;99.90
7155;DHT22;3619;53.784;10.440;2023-02-13T06:35:04;5.70;99.90
7155;DHT22;3619;53.784;10.440;2023-02-13T06:37:33;5.70;99.90
7155;DHT22;3619;53.784;10.440;2023-02-13T06:40:03;5.70;99.90
7155;DHT22;3619;53.784;10.440;2023-02-13T06:42:31;5.70;99.90
7155;DHT22;3619;53.784;10.440;2023-02-13T06:44:58;5.70;99.90
7155;DHT22;3619;53.784;10.440;2023-02-13T06:47:26;5.70;99.90
7155;DHT22;3619;53.784;10.440;2023-02-13T06:49:55;5.70;99.90
7155;DHT22;3619;53.784;10.440;2023-02-13T06:52:22;5.70;99.90
7155;DHT22;3619;53.784;10.440;2023-02-13T06:54:50;5.70;99.90
7155;DHT22;3619;53.784;10.440;2023-02-13T06:57:20;5.70;99.90
7155;DHT22;3619;53.784;10.440;2023-02-13T06:59:47;5.70;99.90
7155;DHT22;3619;53.784;10.440;2023-02-13T07:02:15;5.80;99.90
7155;DHT22;3619;53.784;10.440;2023-02-13T07:04:43;5.70;99.90
7155;DHT22;3619;53.784;10.440;2023-02-13T07:07:10;5.70;99.90
7155;DHT22;3619;53.784;10.440;2023-02-13T07:09:37;5.70;99.90
7155;DHT22;3619;53.784;10.440;2023-02-13T07:12:09;5.70;99.90
7155;DHT22;3619;53.784;10.440;2023-02-13T07:14:35;5.80;99.90
7155;DHT22;3619;53.784;10.440;2023-02-13T07:17:02;5.70;99.90
7155;DHT22;3619;53.784;10.440;2023-02-13T07:19:29;5.70;99.90
7155;DHT22;3619;53.784;10.440;2023-02-13T07:21:57;5.80;99.90
7155;DHT22;3619;53.784;10.440;2023-02-13T07:24:26;5.80;99.90
7155;DHT22;3619;53.784;10.440;2023-02-13T07:27:19;5.80;99.90
7155;DHT22;3619;53.784;10.440;2023-02-13T07:29:46;5.80;99.90
7155;DHT22;3619;53.784;10.440;2023-02-13T07:32:15;5.80;99.90
7155;DHT22;3619;53.784;10.440;2023-02-13T07:34:48;5.80;99.90
7155;DHT22;3619;53.784;10.440;2023-02-13T07:37:14;5.80;99.90
7155;DHT22;3619;53.784;10.440;2023-02-13T07:39:41;5.80;99.90
7155;DHT22;3619;53.784;10.440;2023-02-13T07:42:09;5.80;99.90
7155;DHT22;3619;53.784;10.440;2023-02-13T07:44:37;5.80;99.90
7155;DHT22;3619;53.784;10.440;2023-02-13T07:47:05;5.80;99.90
7155;DHT22;3619;53.784;10.440;2023-02-13T07:49:33;5.80;99.90
7155;DHT22;3619;53.784;10.440;2023-02-13T07:52:01;5.80;99.90
7155;DHT22;3619;53.784;10.440;2023-02-13T07:54:29;5.80;99.90
7155;DHT22;3619;53.784;10.440;2023-02-13T07:56:58;5.80;99.90
7155;DHT22;3619;53.784;10.440;2023-02-13T07:59:25;5.80;99.90
7155;DHT22;3619;53.784;10.440;2023-02-13T08:02:00;5.90;99.90
7155;DHT22;3619;53.784;10.440;2023-02-13T08:04:32;5.80;99.90
7155;DHT22;3619;53.784;10.440;2023-02-13T08:07:07;5.80;99.90
7155;DHT22;3619;53.784;10.440;2023-02-13T08:10:08;5.80;99.90
7155;DHT22;3619;53.784;10.440;2023-02-13T08:12:53;5.80;99.90
7155;DHT22;3619;53.784;10.440;2023-02-13T08:15:40;5.90;99.90
7155;DHT22;3619;53.784;10.440;2023-02-13T08:18:37;6.00;99.90
7155;DHT22;3619;53.784;10.440;2023-02-13T08:21:06;5.90;99.90
7155;DHT22;3619;53.784;10.440;2023-02-13T08:23:33;6.00;99.90
7155;DHT22;3619;53.784;10.440;2023-02-13T08:26:12;6.00;99.90
7155;DHT22;3619;53.784;10.440;2023-02-13T08:28:43;6.00;99.90
7155;DHT22;3619;53.784;10.440;2023-02-13T08:31:16;6.00;99.90
7155;DHT22;3619;53.784;10.440;2023-02-13T08:33:44;6.10;99.90
7155;DHT22;3619;53.784;10.440;2023-02-13T08:36:12;6.00;99.90
7155;DHT22;3619;53.784;10.440;2023-02-13T08:38:41;6.00;99.90
7155;DHT22;3619;53.784;10.440;2023-02-13T08:41:10;6.10;99.90
7155;DHT22;3619;53.784;10.440;2023-02-13T08:43:37;6.00;99.90
7155;DHT22;3619;53.784;10.440;2023-02-13T08:46:05;6.10;99.90
7155;DHT22;3619;53.784;10.440;2023-02-13T08:48:31;6.10;99.90
7155;DHT22;3619;53.784;10.440;2023-02-13T08:51:03;6.20;99.90
7155;DHT22;3619;53.784;10.440;2023-02-13T08:53:32;6.20;99.90
7155;DHT22;3619;53.784;10.440;2023-02-13T08:55:59;6.20;99.90
7155;DHT22;3619;53.784;10.440;2023-02-13T08:58:26;6.20;99.90
7155;DHT22;3619;53.784;10.440;2023-02-13T09:00:54;6.10;99.90
7155;DHT22;3619;53.784;10.440;2023-02-13T09:03:21;6.10;99.90
7155;DHT22;3619;53.784;10.440;2023-02-13T09:05:48;6.20;99.90
7155;DHT22;3619;53.784;10.440;2023-02-13T09:08:16;6.20;99.90
7155;DHT22;3619;53.784;10.440;2023-02-13T09:10:43;6.20;99.90
7155;DHT22;3619;53.784;10.440;2023-02-13T09:13:10;6.30;99.90
7155;DHT22;3619;53.784;10.440;2023-02-13T09:15:38;6.30;99.90
7155;DHT22;3619;53.784;10.440;2023-02-13T09:18:06;6.40;99.90
7155;DHT22;3619;53.784;10.440;2023-02-13T09:20:32;6.50;99.90
7155;DHT22;3619;53.784;10.440;2023-02-13T09:22:59;6.40;99.90
7155;DHT22;3619;53.784;10.440;2023-02-13T09:25:28;6.50;99.90
7155;DHT22;3619;53.784;10.440;2023-02-13T09:27:54;6.50;99.90
7155;DHT22;3619;53.784;10.440;2023-02-13T09:30:21;6.50;99.90
7155;DHT22;3619;53.784;10.440;2023-02-13T09:32:49;6.50;99.90
7155;DHT22;3619;53.784;10.440;2023-02-13T09:35:16;6.50;99.90
7155;DHT22;3619;53.784;10.440;2023-02-13T09:37:43;6.50;99.90
7155;DHT22;3619;53.784;10.440;2023-02-13T09:40:17;6.50;99.90
7155;DHT22;3619;53.784;10.440;2023-02-13T09:42:46;6.50;99.90
7155;DHT22;3619;53.784;10.440;2023-02-13T09:45:14;6.50;99.90
7155;DHT22;3619;53.784;10.440;2023-02-13T09:47:43;6.50;99.90
7155;DHT22;3619;53.784;10.440;2023-02-13T09:50:13;6.50;99.90
7155;DHT22;3619;53.784;10.440;2023-02-13T09:52:43;6.50;99.90
7155;DHT22;3619;53.784;10.440;2023-02-13T09:55:15;6.60;99.90
7155;DHT22;3619;53.784;10.440;2023-02-13T09:57:52;6.60;99.90
7155;DHT22;3619;53.784;10.440;2023-02-13T10:00:27;6.60;99.90
7155;DHT22;3619;53.784;10.440;2023-02-13T10:03:12;6.60;99.90
7155;DHT22;3619;53.784;10.440;2023-02-13T10:05:49;6.70;99.90
7155;DHT22;3619;53.784;10.440;2023-02-13T10:08:30;6.70;99.90
7155;DHT22;3619;53.784;10.440;2023-02-13T10:11:08;6.60;99.90
7155;DHT22;3619;53.784;10.440;2023-02-13T10:14:03;6.60;99.90
7155;DHT22;3619;53.784;10.440;2023-02-13T10:16:37;6.60;99.90
7155;DHT22;3619;53.784;10.440;2023-02-13T10:19:12;6.70;99.90
7155;DHT22;3619;53.784;10.440;2023-02-13T10:21:48;6.80;99.90
7155;DHT22;3619;53.784;10.440;2023-02-13T10:24:25;6.70;99.90
7155;DHT22;3619;53.784;10.440;2023-02-13T10:26:55;6.70;99.90
7155;DHT22;3619;53.784;10.440;2023-02-13T10:29:31;6.70;99.90
7155;DHT22;3619;53.784;10.440;2023-02-13T10:32:26;6.80;99.90
7155;DHT22;3619;53.784;10.440;2023-02-13T10:34:58;6.90;99.90
7155;DHT22;3619;53.784;10.440;2023-02-13T10:37:27;6.90;99.90
7155;DHT22;3619;53.784;10.440;2023-02-13T10:39:54;6.90;99.90
7155;DHT22;3619;53.784;10.440;2023-02-13T10:42:28;7.00;99.90
7155;DHT22;3619;53.784;10.440;2023-02-13T10:45:19;6.90;99.90
7155;DHT22;3619;53.784;10.440;2023-02-13T10:48:02;7.00;99.90
7155;DHT22;3619;53.784;10.440;2023-02-13T10:50:35;7.00;99.90
7155;DHT22;3619;53.784;10.440;2023-02-13T10:53:13;7.00;99.90
7155;DHT22;3619;53.784;10.440;2023-02-13T10:58:38;7.00;99.90
7155;DHT22;3619;53.784;10.440;2023-02-13T11:01:13;7.00;99.90
7155;DHT22;3619;53.784;10.440;2023-02-13T11:03:41;7.00;99.90
7155;DHT22;3619;53.784;10.440;2023-02-13T11:06:15;7.10;99.90
7155;DHT22;3619;53.784;10.440;2023-02-13T11:08:45;7.10;99.90
7155;DHT22;3619;53.784;10.440;2023-02-13T11:11:29;7.10;99.90
7155;DHT22;3619;53.784;10.440;2023-02-13T11:14:09;7.00;99.90
7155;DHT22;3619;53.784;10.440;2023-02-13T11:16:55;7.00;99.90
7155;DHT22;3619;53.784;10.440;2023-02-13T11:19:30;7.10;99.90
7155;DHT22;3619;53.784;10.440;2023-02-13T11:22:03;7.10;99.90
7155;DHT22;3619;53.784;10.440;2023-02-13T11:24:32;7.10;99.90
7155;DHT22;3619;53.784;10.440;2023-02-13T11:27:02;7.10;99.90
7155;DHT22;3619;53.784;10.440;2023-02-13T11:29:51;7.20;99.90
7155;DHT22;3619;53.784;10.440;2023-02-13T11:32:22;7.20;99.90
7155;DHT22;3619;53.784;10.440;2023-02-13T11:34:51;7.20;99.90
7155;DHT22;3619;53.784;10.440;2023-02-13T11:37:27;7.20;99.90
7155;DHT22;3619;53.784;10.440;2023-02-13T11:40:27;7.20;99.90
7155;DHT22;3619;53.784;10.440;2023-02-13T11:42:58;7.20;99.90
7155;DHT22;3619;53.784;10.440;2023-02-13T11:45:25;7.20;99.90
7155;DHT22;3619;53.784;10.440;2023-02-13T11:47:59;7.20;99.90
7155;DHT22;3619;53.784;10.440;2023-02-13T11:50:28;7.20;99.90
7155;DHT22;3619;53.784;10.440;2023-02-13T11:52:58;7.30;99.90
7155;DHT22;3619;53.784;10.440;2023-02-13T11:55:30;7.30;99.90
7155;DHT22;3619;53.784;10.440;2023-02-13T11:57:59;7.30;99.90
7155;DHT22;3619;53.784;10.440;2023-02-13T12:00:32;7.30;99.90
7155;DHT22;3619;53.784;10.440;2023-02-13T12:03:24;7.30;99.90
7155;DHT22;3619;53.784;10.440;2023-02-13T12:06:00;7.40;99.90
7155;DHT22;3619;53.784;10.440;2023-02-13T12:08:28;7.40;99.90
7155;DHT22;3619;53.784;10.440;2023-02-13T12:10:56;7.40;99.90
7155;DHT22;3619;53.784;10.440;2023-02-13T12:13:28;7.30;99.90
7155;DHT22;3619;53.784;10.440;2023-02-13T12:15:59;7.40;99.90
7155;DHT22;3619;53.784;10.440;2023-02-13T12:18:31;7.30;99.90
7155;DHT22;3619;53.784;10.440;2023-02-13T12:21:03;7.30;99.90
7155;DHT22;3619;53.784;10.440;2023-02-13T12:23:42;7.30;99.90
7155;DHT22;3619;53.784;10.440;2023-02-13T12:26:22;7.40;99.90
7155;DHT22;3619;53.784;10.440;2023-02-13T12:29:14;7.40;99.90
7155;DHT22;3619;53.784;10.440;2023-02-13T12:31:54;7.40;99.90
7155;DHT22;3619;53.784;10.440;2023-02-13T12:34:46;7.50;99.90
7155;DHT22;3619;53.784;10.440;2023-02-13T12:37:22;7.50;99.90
7155;DHT22;3619;53.784;10.440;2023-02-13T12:40:06;7.50;99.90
7155;DHT22;3619;53.784;10.440;2023-02-13T12:42:49;7.60;99.90
7155;DHT22;3619;53.784;10.440;2023-02-13T12:45:32;7.60;99.90
7155;DHT22;3619;53.784;10.440;2023-02-13T12:48:14;7.50;99.90
7155;DHT22;3619;53.784;10.440;2023-02-13T12:51:01;7.50;99.90
7155;DHT22;3619;53.784;10.440;2023-02-13T12:54:06;7.50;99.90
7155;DHT22;3619;53.784;10.440;2023-02-13T12:56:55;7.50;99.90
7155;DHT22;3619;53.784;10.440;2023-02-13T12:59:35;7.50;99.90
7155;DHT22;3619;53.784;10.440;2023-02-13T13:02:36;7.50;99.90
7155;DHT22;3619;53.784;10.440;2023-02-13T13:05:16;7.50;99.90
7155;DHT22;3619;53.784;10.440;2023-02-13T13:11:43;7.40;99.90
7155;DHT22;3619;53.784;10.440;2023-02-13T13:14:33;7.40;99.90
7155;DHT22;3619;53.784;10.440;2023-02-13T13:17:10;7.30;99.90
7155;DHT22;3619;53.784;10.440;2023-02-13T13:19:52;7.30;99.90
7155;DHT22;3619;53.784;10.440;2023-02-13T13:22:33;7.20;99.90
7155;DHT22;3619;53.784;10.440;2023-02-13T13:25:09;7.20;99.90
7155;DHT22;3619;53.784;10.440;2023-02-13T13:27:45;7.20;99.90
7155;DHT22;3619;53.784;10.440;2023-02-13T13:30:19;7.10;99.90
7155;DHT22;3619;53.784;10.440;2023-02-13T13:32:53;7.10;99.90
7155;DHT22;3619;53.784;10.440;2023-02-13T13:35:21;7.00;99.90
7155;DHT22;3619;53.784;10.440;2023-02-13T13:37:55;7.00;99.90
7155;DHT22;3619;53.784;10.440;2023-02-13T13:40:36;7.00;99.90
7155;DHT22;3619;53.784;10.440;2023-02-13T13:43:19;7.00;99.90
7155;DHT22;3619;53.784;10.440;2023-02-13T13:45:59;7.10;99.90
7155;DHT22;3619;53.784;10.440;2023-02-13T13:48:44;7.00;99.90
7155;DHT22;3619;53.784;10.440;2023-02-13T13:51:16;7.00;99.90
7155;DHT22;3619;53.784;10.440;2023-02-13T13:54:24;7.00;99.90
7155;DHT22;3619;53.784;10.440;2023-02-13T13:57:10;7.00;99.90
7155;DHT22;3619;53.784;10.440;2023-02-13T14:02:48;7.00;99.90
7155;DHT22;3619;53.784;10.440;2023-02-13T14:05:26;7.10;99.90
7155;DHT22;3619;53.784;10.440;2023-02-13T14:07:55;7.00;99.90
7155;DHT22;3619;53.784;10.440;2023-02-13T14:13:36;7.00;99.90
7155;DHT22;3619;53.784;10.440;2023-02-13T14:16:08;7.00;99.90
7155;DHT22;3619;53.784;10.440;2023-02-13T14:18:37;6.90;99.90
7155;DHT22;3619;53.784;10.440;2023-02-13T14:21:10;7.00;99.90
7155;DHT22;3619;53.784;10.440;2023-02-13T14:23:45;6.90;99.90
7155;DHT22;3619;53.784;10.440;2023-02-13T14:26:32;6.90;99.90
7155;DHT22;3619;53.784;10.440;2023-02-13T14:29:15;6.90;99.90
7155;DHT22;3619;53.784;10.440;2023-02-13T14:31:58;6.90;99.90
7155;DHT22;3619;53.784;10.440;2023-02-13T14:34:33;6.90;99.90
7155;DHT22;3619;53.784;10.440;2023-02-13T14:37:14;6.90;99.90
7155;DHT22;3619;53.784;10.440;2023-02-13T14:40:27;6.90;99.90
7155;DHT22;3619;53.784;10.440;2023-02-13T14:42:59;6.90;99.90
7155;DHT22;3619;53.784;10.440;2023-02-13T14:45:31;6.80;99.90
7155;DHT22;3619;53.784;10.440;2023-02-13T14:48:06;6.80;99.90
7155;DHT22;3619;53.784;10.440;2023-02-13T14:50:42;6.80;99.90
7155;DHT22;3619;53.784;10.440;2023-02-13T14:53:18;6.70;99.90
7155;DHT22;3619;53.784;10.440;2023-02-13T14:55:57;6.70;99.90
7155;DHT22;3619;53.784;10.440;2023-02-13T14:58:27;6.60;99.90
7155;DHT22;3619;53.784;10.440;2023-02-13T15:00:59;6.60;99.90
7155;DHT22;3619;53.784;10.440;2023-02-13T15:03:30;6.60;99.90
7155;DHT22;3619;53.784;10.440;2023-02-13T15:06:03;6.50;99.90
7155;DHT22;3619;53.784;10.440;2023-02-13T15:08:35;6.50;99.90
7155;DHT22;3619;53.784;10.440;2023-02-13T15:11:03;6.50;99.90
7155;DHT22;3619;53.784;10.440;2023-02-13T15:13:53;6.40;99.90
7155;DHT22;3619;53.784;10.440;2023-02-13T15:16:34;6.40;99.90
7155;DHT22;3619;53.784;10.440;2023-02-13T15:19:02;6.40;99.90
7155;DHT22;3619;53.784;10.440;2023-02-13T15:21:32;6.40;99.90
7155;DHT22;3619;53.784;10.440;2023-02-13T15:24:03;6.40;99.90
7155;DHT22;3619;53.784;10.440;2023-02-13T15:26:30;6.40;99.90
7155;DHT22;3619;53.784;10.440;2023-02-13T15:28:58;6.40;99.90
7155;DHT22;3619;53.784;10.440;2023-02-13T15:31:29;6.40;99.90
7155;DHT22;3619;53.784;10.440;2023-02-13T15:33:57;6.40;99.90
7155;DHT22;3619;53.784;10.440;2023-02-13T15:36:35;6.40;99.90
7155;DHT22;3619;53.784;10.440;2023-02-13T15:39:06;6.30;99.90
7155;DHT22;3619;53.784;10.440;2023-02-13T15:41:36;6.40;99.90
7155;DHT22;3619;53.784;10.440;2023-02-13T15:44:06;6.30;99.90
7155;DHT22;3619;53.784;10.440;2023-02-13T15:46:34;6.30;99.90
7155;DHT22;3619;53.784;10.440;2023-02-13T15:49:05;6.30;99.90
7155;DHT22;3619;53.784;10.440;2023-02-13T15:51:34;6.30;99.90
7155;DHT22;3619;53.784;10.440;2023-02-13T15:54:03;6.20;99.90
7155;DHT22;3619;53.784;10.440;2023-02-13T15:56:30;6.20;99.90
7155;DHT22;3619;53.784;10.440;2023-02-13T15:58:59;6.20;99.90
7155;DHT22;3619;53.784;10.440;2023-02-13T16:01:27;6.20;99.90
7155;DHT22;3619;53.784;10.440;2023-02-13T16:03:59;6.20;99.90
7155;DHT22;3619;53.784;10.440;2023-02-13T16:06:26;6.10;99.90
7155;DHT22;3619;53.784;10.440;2023-02-13T16:08:55;6.10;99.90
7155;DHT22;3619;53.784;10.440;2023-02-13T16:11:27;6.10;99.90
7155;DHT22;3619;53.784;10.440;2023-02-13T16:14:13;6.10;99.90
7155;DHT22;3619;53.784;10.440;2023-02-13T16:16:45;6.10;99.90
7155;DHT22;3619;53.784;10.440;2023-02-13T16:19:32;6.10;99.90
7155;DHT22;3619;53.784;10.440;2023-02-13T16:22:06;6.00;99.90
7155;DHT22;3619;53.784;10.440;2023-02-13T16:24:44;6.00;99.90
7155;DHT22;3619;53.784;10.440;2023-02-13T16:27:13;5.90;99.90
7155;DHT22;3619;53.784;10.440;2023-02-13T16:29:44;5.90;99.90
7155;DHT22;3619;53.784;10.440;2023-02-13T16:32:20;5.90;99.90
7155;DHT22;3619;53.784;10.440;2023-02-13T16:34:49;5.90;99.90
7155;DHT22;3619;53.784;10.440;2023-02-13T16:37:26;5.80;99.90
7155;DHT22;3619;53.784;10.440;2023-02-13T16:39:56;5.80;99.90
7155;DHT22;3619;53.784;10.440;2023-02-13T16:42:22;5.80;99.90
7155;DHT22;3619;53.784;10.440;2023-02-13T16:44:50;5.80;99.90
7155;DHT22;3619;53.784;10.440;2023-02-13T16:47:21;5.70;99.90
7155;DHT22;3619;53.784;10.440;2023-02-13T16:49:52;5.70;99.90
7155;DHT22;3619;53.784;10.440;2023-02-13T16:52:24;5.70;99.90
7155;DHT22;3619;53.784;10.440;2023-02-13T16:54:54;5.70;99.90
7155;DHT22;3619;53.784;10.440;2023-02-13T16:57:27;5.70;99.90
7155;DHT22;3619;53.784;10.440;2023-02-13T17:00:03;5.70;99.90
7155;DHT22;3619;53.784;10.440;2023-02-13T17:02:34;5.70;99.90